sensor_id;sensor_type;location;lat;lon;timestamp;temperature;humidity
50544;DHT22;41176;44.032;20.900;2022-08-21T00:01:46;22.00;99.90
50544;DHT22;41176;44.032;20.900;2022-08-21T00:04:12;22.10;99.90
50544;DHT22;41176;44.032;20.900;2022-08-21T00:06:38;22.10;99.90
50544;DHT22;41176;44.032;20.900;2022-08-21T00:09:06;22.10;99.90
50544;DHT22;41176;44.032;20.900;2022-08-21T00:11:33;22.10;99.90
50544;DHT22;41176;44.032;20.900;2022-08-21T00:14:00;22.10;99.90
50544;DHT22;41176;44.032;20.900;2022-08-21T00:16:26;22.10;99.90
50544;DHT22;41176;44.032;20.900;2022-08-21T00:18:52;22.20;99.90
50544;DHT22;41176;44.032;20.900;2022-08-21T00:21:18;22.10;99.90
50544;DHT22;41176;44.032;20.900;2022-08-21T00:23:44;22.10;99.90
50544;DHT22;41176;44.032;20.900;2022-08-21T00:26:10;22.10;99.90
50544;DHT22;41176;44.032;20.900;2022-08-21T00:28:36;22.20;99.90
50544;DHT22;41176;44.032;20.900;2022-08-21T00:31:02;22.10;99.90
50544;DHT22;41176;44.032;20.900;2022-08-21T00:33:30;22.10;99.90
50544;DHT22;41176;44.032;20.900;2022-08-21T00:35:56;22.00;99.90
50544;DHT22;41176;44.032;20.900;2022-08-21T00:38:22;22.00;99.90
50544;DHT22;41176;44.032;20.900;2022-08-21T00:40:58;21.80;99.90
50544;DHT22;41176;44.032;20.900;2022-08-21T00:43:28;21.90;99.90
50544;DHT22;41176;44.032;20.900;2022-08-21T00:45:55;21.90;99.90
50544;DHT22;41176;44.032;20.900;2022-08-21T00:48:22;22.00;99.90
50544;DHT22;41176;44.032;20.900;2022-08-21T00:51:08;21.90;99.90
50544;DHT22;41176;44.032;20.900;2022-08-21T00:53:40;21.90;99.90
50544;DHT22;41176;44.032;20.900;2022-08-21T00:56:09;21.90;99.90
50544;DHT22;41176;44.032;20.900;2022-08-21T00:58:37;21.90;99.90
50544;DHT22;41176;44.032;20.900;2022-08-21T01:01:06;21.90;99.90
50544;DHT22;41176;44.032;20.900;2022-08-21T01:03:33;22.00;99.90
50544;DHT22;41176;44.032;20.900;2022-08-21T01:05:59;22.00;99.90
50544;DHT22;41176;44.032;20.900;2022-08-21T01:08:25;22.00;99.90
50544;DHT22;41176;44.032;20.900;2022-08-21T01:10:52;21.90;99.90
50544;DHT22;41176;44.032;20.900;2022-08-21T01:13:19;21.90;99.90
50544;DHT22;41176;44.032;20.900;2022-08-21T01:15:49;21.90;99.90
50544;DHT22;41176;44.032;20.900;2022-08-21T01:18:18;21.90;99.90
50544;DHT22;41176;44.032;20.900;2022-08-21T01:21:05;21.90;99.90
50544;DHT22;41176;44.032;20.900;2022-08-21T01:23:32;22.00;99.90
50544;DHT22;41176;44.032;20.900;2022-08-21T01:25:58;21.90;99.90
50544;DHT22;41176;44.032;20.900;2022-08-21T01:28:24;22.00;99.90
50544;DHT22;41176;44.032;20.900;2022-08-21T01:30:51;22.00;99.90
50544;DHT22;41176;44.032;20.900;2022-08-21T01:33:22;22.00;99.90
50544;DHT22;41176;44.032;20.900;2022-08-21T01:35:50;22.10;99.90
50544;DHT22;41176;44.032;20.900;2022-08-21T01:38:16;22.10;99.90
50544;DHT22;41176;44.032;20.900;2022-08-21T01:40:42;22.00;99.90
50544;DHT22;41176;44.032;20.900;2022-08-21T01:43:07;22.10;99.90
50544;DHT22;41176;44.032;20.900;2022-08-21T01:45:33;22.00;99.90
50544;DHT22;41176;44.032;20.900;2022-08-21T01:47:59;22.00;99.90
50544;DHT22;41176;44.032;20.900;2022-08-21T01:50:25;21.90;99.90
50544;DHT22;41176;44.032;20.900;2022-08-21T01:52:50;22.00;99.90
50544;DHT22;41176;44.032;20.900;2022-08-21T01:55:17;22.00;99.90
50544;DHT22;41176;44.032;20.900;2022-08-21T01:57:44;22.00;99.90
50544;DHT22;41176;44.032;20.900;2022-08-21T02:00:14;22.00;99.90
50544;DHT22;41176;44.032;20.900;2022-08-21T02:02:41;21.90;99.90
50544;DHT22;41176;44.032;20.900;2022-08-21T02:05:08;21.90;99.90
50544;DHT22;41176;44.032;20.900;2022-08-21T02:07:43;21.90;99.90
50544;DHT22;41176;44.032;20.900;2022-08-21T02:10:11;21.90;99.90
50544;DHT22;41176;44.032;20.900;2022-08-21T02:12:37;21.90;99.90
50544;DHT22;41176;44.032;20.900;2022-08-21T02:15:04;21.80;99.90
50544;DHT22;41176;44.032;20.900;2022-08-21T02:17:42;21.80;99.90
50544;DHT22;41176;44.032;20.900;2022-08-21T02:20:10;21.90;99.90
50544;DHT22;41176;44.032;20.900;2022-08-21T02:22:36;21.90;99.90
50544;DHT22;41176;44.032;20.900;2022-08-21T02:25:03;21.90;99.90
50544;DHT22;41176;44.032;20.900;2022-08-21T02:27:28;21.80;99.90
50544;DHT22;41176;44.032;20.900;2022-08-21T02:29:56;21.70;99.90
50544;DHT22;41176;44.032;20.900;2022-08-21T02:32:22;21.80;99.90
50544;DHT22;41176;44.032;20.900;2022-08-21T02:34:48;21.80;99.90
50544;DHT22;41176;44.032;20.900;2022-08-21T02:37:15;21.80;99.90
50544;DHT22;41176;44.032;20.900;2022-08-21T02:39:40;21.70;99.90
50544;DHT22;41176;44.032;20.900;2022-08-21T02:42:06;21.70;99.90
50544;DHT22;41176;44.032;20.900;2022-08-21T02:44:32;21.70;99.90
50544;DHT22;41176;44.032;20.900;2022-08-21T02:46:58;21.80;99.90
50544;DHT22;41176;44.032;20.900;2022-08-21T02:49:24;21.70;99.90
50544;DHT22;41176;44.032;20.900;2022-08-21T02:51:49;21.70;99.90
50544;DHT22;41176;44.032;20.900;2022-08-21T02:54:15;21.70;99.90
50544;DHT22;41176;44.032;20.900;2022-08-21T02:56:41;21.60;99.90
50544;DHT22;41176;44.032;20.900;2022-08-21T02:59:06;21.50;99.90
50544;DHT22;41176;44.032;20.900;2022-08-21T03:01:32;21.40;99.90
50544;DHT22;41176;44.032;20.900;2022-08-21T03:03:58;21.50;99.90
50544;DHT22;41176;44.032;20.900;2022-08-21T03:06:24;21.50;99.90
50544;DHT22;41176;44.032;20.900;2022-08-21T03:08:50;21.40;99.90
50544;DHT22;41176;44.032;20.900;2022-08-21T03:11:16;21.40;99.90
50544;DHT22;41176;44.032;20.900;2022-08-21T03:13:42;21.50;99.90
50544;DHT22;41176;44.032;20.900;2022-08-21T03:16:08;21.50;99.90
50544;DHT22;41176;44.032;20.900;2022-08-21T03:18:34;21.60;99.90
50544;DHT22;41176;44.032;20.900;2022-08-21T03:21:01;21.60;99.90
50544;DHT22;41176;44.032;20.900;2022-08-21T03:23:27;21.60;99.90
50544;DHT22;41176;44.032;20.900;2022-08-21T03:25:53;21.60;99.90
50544;DHT22;41176;44.032;20.900;2022-08-21T03:28:20;21.60;99.90
50544;DHT22;41176;44.032;20.900;2022-08-21T03:30:49;21.60;99.90
50544;DHT22;41176;44.032;20.900;2022-08-21T03:33:15;21.70;99.90
50544;DHT22;41176;44.032;20.900;2022-08-21T03:35:46;21.60;99.90
50544;DHT22;41176;44.032;20.900;2022-08-21T03:38:13;21.70;99.90
50544;DHT22;41176;44.032;20.900;2022-08-21T03:40:39;21.70;99.90
50544;DHT22;41176;44.032;20.900;2022-08-21T03:43:05;21.70;99.90
50544;DHT22;41176;44.032;20.900;2022-08-21T03:45:31;21.70;99.90
50544;DHT22;41176;44.032;20.900;2022-08-21T03:48:00;21.60;99.90
50544;DHT22;41176;44.032;20.900;2022-08-21T03:50:31;21.60;99.90
50544;DHT22;41176;44.032;20.900;2022-08-21T03:52:57;21.60;99.90
50544;DHT22;41176;44.032;20.900;2022-08-21T03:55:24;21.60;99.90
50544;DHT22;41176;44.032;20.900;2022-08-21T03:57:50;21.70;99.90
50544;DHT22;41176;44.032;20.900;2022-08-21T04:00:17;21.70;99.90
50544;DHT22;41176;44.032;20.900;2022-08-21T04:02:43;21.60;99.90
50544;DHT22;41176;44.032;20.900;2022-08-21T04:05:10;21.60;99.90
50544;DHT22;41176;44.032;20.900;2022-08-21T04:07:36;21.70;99.90
50544;DHT22;41176;44.032;20.900;2022-08-21T04:10:04;21.70;99.90
50544;DHT22;41176;44.032;20.900;2022-08-21T04:12:30;21.60;99.90
50544;DHT22;41176;44.032;20.900;2022-08-21T04:14:56;21.70;99.90
50544;DHT22;41176;44.032;20.900;2022-08-21T04:17:22;21.70;99.90
50544;DHT22;41176;44.032;20.900;2022-08-21T04:19:48;21.60;99.90
50544;DHT22;41176;44.032;20.900;2022-08-21T04:22:15;21.60;99.90
50544;DHT22;41176;44.032;20.900;2022-08-21T04:24:41;21.70;99.90
50544;DHT22;41176;44.032;20.900;2022-08-21T04:27:06;21.80;99.90
50544;DHT22;41176;44.032;20.900;2022-08-21T04:29:32;21.80;99.90
50544;DHT22;41176;44.032;20.900;2022-08-21T04:31:58;21.80;99.90
50544;DHT22;41176;44.032;20.900;2022-08-21T04:34:23;21.80;99.90
50544;DHT22;41176;44.032;20.900;2022-08-21T04:36:49;21.80;99.90
50544;DHT22;41176;44.032;20.900;2022-08-21T04:39:15;21.90;99.90
50544;DHT22;41176;44.032;20.900;2022-08-21T04:41:41;21.90;99.90
50544;DHT22;41176;44.032;20.900;2022-08-21T04:44:06;21.90;99.90
50544;DHT22;41176;44.032;20.900;2022-08-21T04:46:34;22.00;99.90
50544;DHT22;41176;44.032;20.900;2022-08-21T04:48:59;22.00;99.90
50544;DHT22;41176;44.032;20.900;2022-08-21T04:51:28;21.90;99.90
50544;DHT22;41176;44.032;20.900;2022-08-21T04:54:02;21.90;99.90
50544;DHT22;41176;44.032;20.900;2022-08-21T04:56:40;21.80;99.90
50544;DHT22;41176;44.032;20.900;2022-08-21T04:59:12;21.90;99.90
50544;DHT22;41176;44.032;20.900;2022-08-21T05:01:40;22.00;99.90
50544;DHT22;41176;44.032;20.900;2022-08-21T05:04:09;22.20;99.90
50544;DHT22;41176;44.032;20.900;2022-08-21T05:06:36;22.20;99.90
50544;DHT22;41176;44.032;20.900;2022-08-21T05:09:05;22.30;99.90
50544;DHT22;41176;44.032;20.900;2022-08-21T05:11:32;22.30;99.90
50544;DHT22;41176;44.032;20.900;2022-08-21T05:13:58;22.10;99.90
50544;DHT22;41176;44.032;20.900;2022-08-21T05:16:24;22.00;99.90
50544;DHT22;41176;44.032;20.900;2022-08-21T05:18:50;22.00;99.90
50544;DHT22;41176;44.032;20.900;2022-08-21T05:21:16;22.10;99.90
50544;DHT22;41176;44.032;20.900;2022-08-21T05:23:41;22.00;99.90
50544;DHT22;41176;44.032;20.900;2022-08-21T05:26:08;21.90;99.90
50544;DHT22;41176;44.032;20.900;2022-08-21T05:28:34;21.90;99.90
50544;DHT22;41176;44.032;20.900;2022-08-21T05:31:00;21.90;99.90
50544;DHT22;41176;44.032;20.900;2022-08-21T05:33:26;22.00;99.90
50544;DHT22;41176;44.032;20.900;2022-08-21T05:35:53;22.10;99.90
50544;DHT22;41176;44.032;20.900;2022-08-21T05:38:22;22.00;99.90
50544;DHT22;41176;44.032;20.900;2022-08-21T05:40:48;21.90;99.90
50544;DHT22;41176;44.032;20.900;2022-08-21T05:43:14;21.80;99.90
50544;DHT22;41176;44.032;20.900;2022-08-21T05:45:40;21.80;99.90
50544;DHT22;41176;44.032;20.900;2022-08-21T05:48:10;21.90;99.90
50544;DHT22;41176;44.032;20.900;2022-08-21T05:50:36;21.90;99.90
50544;DHT22;41176;44.032;20.900;2022-08-21T05:53:04;21.90;99.90
50544;DHT22;41176;44.032;20.900;2022-08-21T05:55:30;21.80;99.90
50544;DHT22;41176;44.032;20.900;2022-08-21T05:57:56;21.70;99.90
50544;DHT22;41176;44.032;20.900;2022-08-21T06:00:22;21.70;99.90
50544;DHT22;41176;44.032;20.900;2022-08-21T06:02:49;21.60;99.90
50544;DHT22;41176;44.032;20.900;2022-08-21T06:05:16;21.70;99.90
50544;DHT22;41176;44.032;20.900;2022-08-21T06:07:42;21.70;99.90
50544;DHT22;41176;44.032;20.900;2022-08-21T06:10:08;21.70;99.90
50544;DHT22;41176;44.032;20.900;2022-08-21T06:12:34;21.70;99.90
50544;DHT22;41176;44.032;20.900;2022-08-21T06:15:00;21.70;99.90
50544;DHT22;41176;44.032;20.900;2022-08-21T06:17:26;21.50;99.90
50544;DHT22;41176;44.032;20.900;2022-08-21T06:19:53;21.40;99.90
50544;DHT22;41176;44.032;20.900;2022-08-21T06:22:19;21.40;99.90
50544;DHT22;41176;44.032;20.900;2022-08-21T06:24:46;21.40;99.90
50544;DHT22;41176;44.032;20.900;2022-08-21T06:27:12;21.50;99.90
50544;DHT22;41176;44.032;20.900;2022-08-21T06:29:38;21.50;99.90
50544;DHT22;41176;44.032;20.900;2022-08-21T06:32:04;21.50;99.90
50544;DHT22;41176;44.032;20.900;2022-08-21T06:34:36;21.50;99.90
50544;DHT22;41176;44.032;20.900;2022-08-21T06:37:02;21.50;99.90
50544;DHT22;41176;44.032;20.900;2022-08-21T06:39:27;21.50;99.90
50544;DHT22;41176;44.032;20.900;2022-08-21T06:41:53;21.60;99.90
50544;DHT22;41176;44.032;20.900;2022-08-21T06:44:20;21.60;99.90
50544;DHT22;41176;44.032;20.900;2022-08-21T06:46:46;21.70;99.90
50544;DHT22;41176;44.032;20.900;2022-08-21T06:49:11;21.80;99.90
50544;DHT22;41176;44.032;20.900;2022-08-21T06:51:38;21.90;99.90
50544;DHT22;41176;44.032;20.900;2022-08-21T06:54:04;21.90;99.90
50544;DHT22;41176;44.032;20.900;2022-08-21T06:56:30;21.90;99.90
50544;DHT22;41176;44.032;20.900;2022-08-21T06:58:56;21.90;99.90
50544;DHT22;41176;44.032;20.900;2022-08-21T07:01:24;21.70;99.90
50544;DHT22;41176;44.032;20.900;2022-08-21T07:03:50;21.70;99.90
50544;DHT22;41176;44.032;20.900;2022-08-21T07:06:16;21.70;99.90
50544;DHT22;41176;44.032;20.900;2022-08-21T07:08:42;21.70;99.90
50544;DHT22;41176;44.032;20.900;2022-08-21T07:11:17;21.70;99.90
50544;DHT22;41176;44.032;20.900;2022-08-21T07:13:43;21.80;99.90
50544;DHT22;41176;44.032;20.900;2022-08-21T07:16:09;21.70;99.90
50544;DHT22;41176;44.032;20.900;2022-08-21T07:18:36;21.80;99.90
50544;DHT22;41176;44.032;20.900;2022-08-21T07:21:04;21.80;99.90
50544;DHT22;41176;44.032;20.900;2022-08-21T07:23:33;21.80;99.90
50544;DHT22;41176;44.032;20.900;2022-08-21T07:25:59;21.90;99.90
50544;DHT22;41176;44.032;20.900;2022-08-21T07:28:26;21.90;99.90
50544;DHT22;41176;44.032;20.900;2022-08-21T07:30:54;21.90;99.90
50544;DHT22;41176;44.032;20.900;2022-08-21T07:33:22;22.00;99.90
50544;DHT22;41176;44.032;20.900;2022-08-21T07:35:48;21.90;99.90
50544;DHT22;41176;44.032;20.900;2022-08-21T07:38:13;21.90;99.90
50544;DHT22;41176;44.032;20.900;2022-08-21T07:40:39;22.00;99.90
50544;DHT22;41176;44.032;20.900;2022-08-21T07:43:05;22.10;99.90
50544;DHT22;41176;44.032;20.900;2022-08-21T07:45:31;22.10;99.90
50544;DHT22;41176;44.032;20.900;2022-08-21T07:47:57;22.10;99.90
50544;DHT22;41176;44.032;20.900;2022-08-21T07:50:24;22.00;99.90
50544;DHT22;41176;44.032;20.900;2022-08-21T07:52:49;22.10;99.90
50544;DHT22;41176;44.032;20.900;2022-08-21T07:55:18;22.00;99.90
50544;DHT22;41176;44.032;20.900;2022-08-21T07:57:45;22.10;99.90
50544;DHT22;41176;44.032;20.900;2022-08-21T08:00:15;22.30;99.90
50544;DHT22;41176;44.032;20.900;2022-08-21T08:02:45;22.50;99.90
50544;DHT22;41176;44.032;20.900;2022-08-21T08:05:12;22.60;99.90
50544;DHT22;41176;44.032;20.900;2022-08-21T08:07:38;22.60;99.90
50544;DHT22;41176;44.032;20.900;2022-08-21T08:10:06;22.60;99.90
50544;DHT22;41176;44.032;20.900;2022-08-21T08:12:36;22.60;99.90
50544;DHT22;41176;44.032;20.900;2022-08-21T08:15:04;22.70;99.90
50544;DHT22;41176;44.032;20.900;2022-08-21T08:17:30;22.80;99.90
50544;DHT22;41176;44.032;20.900;2022-08-21T08:19:57;23.00;99.90
50544;DHT22;41176;44.032;20.900;2022-08-21T08:22:23;23.10;99.90
50544;DHT22;41176;44.032;20.900;2022-08-21T08:24:50;23.30;99.90
50544;DHT22;41176;44.032;20.900;2022-08-21T08:27:17;23.40;99.90
50544;DHT22;41176;44.032;20.900;2022-08-21T08:29:44;23.10;99.90
50544;DHT22;41176;44.032;20.900;2022-08-21T08:32:10;23.20;99.90
50544;DHT22;41176;44.032;20.900;2022-08-21T08:34:37;23.10;99.90
50544;DHT22;41176;44.032;20.900;2022-08-21T08:37:05;23.20;99.90
50544;DHT22;41176;44.032;20.900;2022-08-21T08:39:31;23.40;99.90
50544;DHT22;41176;44.032;20.900;2022-08-21T08:42:14;23.50;99.90
50544;DHT22;41176;44.032;20.900;2022-08-21T08:44:41;23.70;99.90
50544;DHT22;41176;44.032;20.900;2022-08-21T08:47:09;23.80;99.90
50544;DHT22;41176;44.032;20.900;2022-08-21T08:49:49;24.10;99.90
50544;DHT22;41176;44.032;20.900;2022-08-21T08:52:22;24.00;99.90
50544;DHT22;41176;44.032;20.900;2022-08-21T08:55:18;23.90;99.90
50544;DHT22;41176;44.032;20.900;2022-08-21T08:57:48;24.10;99.90
50544;DHT22;41176;44.032;20.900;2022-08-21T09:00:18;24.00;99.90
50544;DHT22;41176;44.032;20.900;2022-08-21T09:02:45;24.10;99.90
50544;DHT22;41176;44.032;20.900;2022-08-21T09:05:23;24.20;99.90
50544;DHT22;41176;44.032;20.900;2022-08-21T09:10:50;24.30;99.90
50544;DHT22;41176;44.032;20.900;2022-08-21T09:13:31;24.50;99.90
50544;DHT22;41176;44.032;20.900;2022-08-21T09:22:08;25.40;99.90
50544;DHT22;41176;44.032;20.900;2022-08-21T09:27:08;25.20;99.90
50544;DHT22;41176;44.032;20.900;2022-08-21T09:29:37;25.40;99.90
50544;DHT22;41176;44.032;20.900;2022-08-21T09:32:22;25.50;99.90
50544;DHT22;41176;44.032;20.900;2022-08-21T09:37:33;26.60;99.90
50544;DHT22;41176;44.032;20.900;2022-08-21T09:40:02;27.10;99.90
50544;DHT22;41176;44.032;20.900;2022-08-21T09:42:30;27.70;98.20
50544;DHT22;41176;44.032;20.900;2022-08-21T09:45:15;27.50;99.10
50544;DHT22;41176;44.032;20.900;2022-08-21T09:47:43;28.00;95.90
50544;DHT22;41176;44.032;20.900;2022-08-21T09:50:28;28.10;97.50
50544;DHT22;41176;44.032;20.900;2022-08-21T09:52:58;28.10;94.50
50544;DHT22;41176;44.032;20.900;2022-08-21T09:55:46;28.10;94.80
50544;DHT22;41176;44.032;20.900;2022-08-21T09:58:34;28.00;95.40
50544;DHT22;41176;44.032;20.900;2022-08-21T10:01:03;27.80;94.40
50544;DHT22;41176;44.032;20.900;2022-08-21T10:03:29;27.40;94.00
50544;DHT22;41176;44.032;20.900;2022-08-21T10:06:02;27.10;96.00
50544;DHT22;41176;44.032;20.900;2022-08-21T10:08:34;26.70;95.00
50544;DHT22;41176;44.032;20.900;2022-08-21T10:11:12;26.00;96.30
50544;DHT22;41176;44.032;20.900;2022-08-21T10:13:51;25.50;97.40
50544;DHT22;41176;44.032;20.900;2022-08-21T10:16:29;25.40;98.40
50544;DHT22;41176;44.032;20.900;2022-08-21T10:24:56;25.20;98.90
50544;DHT22;41176;44.032;20.900;2022-08-21T10:38:15;23.90;99.90
50544;DHT22;41176;44.032;20.900;2022-08-21T10:44:03;23.70;99.90
50544;DHT22;41176;44.032;20.900;2022-08-21T10:46:53;23.70;99.90
50544;DHT22;41176;44.032;20.900;2022-08-21T10:52:25;23.50;99.90
50544;DHT22;41176;44.032;20.900;2022-08-21T10:54:56;23.60;99.90
50544;DHT22;41176;44.032;20.900;2022-08-21T10:58:02;23.70;99.90
50544;DHT22;41176;44.032;20.900;2022-08-21T11:00:22;23.40;99.90
50544;DHT22;41176;44.032;20.900;2022-08-21T11:05:32;23.50;99.90
50544;DHT22;41176;44.032;20.900;2022-08-21T11:08:15;23.60;99.90
50544;DHT22;41176;44.032;20.900;2022-08-21T11:11:05;23.50;99.90
50544;DHT22;41176;44.032;20.900;2022-08-21T11:16:45;23.50;99.90
50544;DHT22;41176;44.032;20.900;2022-08-21T11:27:52;23.80;99.90
50544;DHT22;41176;44.032;20.900;2022-08-21T11:30:20;23.90;99.90
50544;DHT22;41176;44.032;20.900;2022-08-21T11:35:53;24.10;99.90
50544;DHT22;41176;44.032;20.900;2022-08-21T11:38:35;24.10;99.90
50544;DHT22;41176;44.032;20.900;2022-08-21T11:41:32;24.30;99.90
50544;DHT22;41176;44.032;20.900;2022-08-21T11:44:26;24.50;99.90
50544;DHT22;41176;44.032;20.900;2022-08-21T11:47:02;24.30;99.90
50544;DHT22;41176;44.032;20.900;2022-08-21T11:49:46;24.50;99.90
50544;DHT22;41176;44.032;20.900;2022-08-21T11:52:26;24.70;99.90
50544;DHT22;41176;44.032;20.900;2022-08-21T11:55:00;25.00;99.90
50544;DHT22;41176;44.032;20.900;2022-08-21T11:57:50;25.00;99.90
50544;DHT22;41176;44.032;20.900;2022-08-21T12:00:29;25.00;99.90
50544;DHT22;41176;44.032;20.900;2022-08-21T12:03:05;24.90;99.90
50544;DHT22;41176;44.032;20.900;2022-08-21T12:05:39;24.90;99.90
50544;DHT22;41176;44.032;20.900;2022-08-21T12:08:14;24.90;99.90
50544;DHT22;41176;44.032;20.900;2022-08-21T12:10:46;25.00;99.90
50544;DHT22;41176;44.032;20.900;2022-08-21T12:13:26;25.10;99.90
50544;DHT22;41176;44.032;20.900;2022-08-21T12:15:52;25.10;99.90
50544;DHT22;41176;44.032;20.900;2022-08-21T12:18:27;25.00;99.90
50544;DHT22;41176;44.032;20.900;2022-08-21T12:21:04;25.40;99.90
50544;DHT22;41176;44.032;20.900;2022-08-21T12:23:45;25.60;99.90
50544;DHT22;41176;44.032;20.900;2022-08-21T12:26:25;25.40;99.90
50544;DHT22;41176;44.032;20.900;2022-08-21T12:29:13;25.30;99.90
50544;DHT22;41176;44.032;20.900;2022-08-21T12:31:52;25.10;99.90
50544;DHT22;41176;44.032;20.900;2022-08-21T12:34:20;25.10;99.90
50544;DHT22;41176;44.032;20.900;2022-08-21T12:36:54;24.90;99.90
50544;DHT22;41176;44.032;20.900;2022-08-21T12:39:24;24.70;99.90
50544;DHT22;41176;44.032;20.900;2022-08-21T12:41:59;24.70;99.90
50544;DHT22;41176;44.032;20.900;2022-08-21T12:44:37;24.50;99.90
50544;DHT22;41176;44.032;20.900;2022-08-21T12:47:12;24.40;99.90
50544;DHT22;41176;44.032;20.900;2022-08-21T12:50:13;24.30;99.90
50544;DHT22;41176;44.032;20.900;2022-08-21T12:52:45;24.30;99.90
50544;DHT22;41176;44.032;20.900;2022-08-21T12:55:15;24.30;99.90
50544;DHT22;41176;44.032;20.900;2022-08-21T12:57:50;24.30;99.90
50544;DHT22;41176;44.032;20.900;2022-08-21T13:00:22;24.30;99.90
50544;DHT22;41176;44.032;20.900;2022-08-21T13:02:50;24.40;99.90
50544;DHT22;41176;44.032;20.900;2022-08-21T13:07:55;24.60;99.90
50544;DHT22;41176;44.032;20.900;2022-08-21T13:10:24;24.60;99.90
50544;DHT22;41176;44.032;20.900;2022-08-21T13:12:58;24.50;99.90
50544;DHT22;41176;44.032;20.900;2022-08-21T13:15:30;24.50;99.90
50544;DHT22;41176;44.032;20.900;2022-08-21T13:17:57;24.30;99.90
50544;DHT22;41176;44.032;20.900;2022-08-21T13:20:38;24.20;99.90
50544;DHT22;41176;44.032;20.900;2022-08-21T13:23:27;24.30;99.90
50544;DHT22;41176;44.032;20.900;2022-08-21T13:25:54;24.50;99.90
50544;DHT22;41176;44.032;20.900;2022-08-21T13:28:20;24.80;99.90
50544;DHT22;41176;44.032;20.900;2022-08-21T13:30:51;25.10;99.90
50544;DHT22;41176;44.032;20.900;2022-08-21T13:33:20;25.20;99.90
50544;DHT22;41176;44.032;20.900;2022-08-21T13:35:57;25.10;99.90
50544;DHT22;41176;44.032;20.900;2022-08-21T13:38:30;25.10;99.90
50544;DHT22;41176;44.032;20.900;2022-08-21T13:40:59;25.20;99.90
50544;DHT22;41176;44.032;20.900;2022-08-21T13:43:34;25.40;99.90
50544;DHT22;41176;44.032;20.900;2022-08-21T13:46:06;25.70;99.90
50544;DHT22;41176;44.032;20.900;2022-08-21T13:48:34;25.90;99.50
50544;DHT22;41176;44.032;20.900;2022-08-21T13:51:00;25.80;98.30
50544;DHT22;41176;44.032;20.900;2022-08-21T13:53:43;25.60;98.40
50544;DHT22;41176;44.032;20.900;2022-08-21T13:56:20;25.50;98.60
50544;DHT22;41176;44.032;20.900;2022-08-21T13:58:47;25.20;99.40
50544;DHT22;41176;44.032;20.900;2022-08-21T14:01:52;24.70;99.90
50544;DHT22;41176;44.032;20.900;2022-08-21T14:04:35;24.50;99.90
50544;DHT22;41176;44.032;20.900;2022-08-21T14:07:02;24.50;99.90
50544;DHT22;41176;44.032;20.900;2022-08-21T14:09:44;24.40;99.90
50544;DHT22;41176;44.032;20.900;2022-08-21T14:12:17;24.40;99.90
50544;DHT22;41176;44.032;20.900;2022-08-21T14:14:44;24.30;99.90
50544;DHT22;41176;44.032;20.900;2022-08-21T14:17:13;24.20;99.90
50544;DHT22;41176;44.032;20.900;2022-08-21T14:19:50;24.10;99.90
50544;DHT22;41176;44.032;20.900;2022-08-21T14:25:07;24.00;99.90
50544;DHT22;41176;44.032;20.900;2022-08-21T14:27:38;23.70;99.90
50544;DHT22;41176;44.032;20.900;2022-08-21T14:30:18;23.60;99.90
50544;DHT22;41176;44.032;20.900;2022-08-21T14:32:45;23.60;99.90
50544;DHT22;41176;44.032;20.900;2022-08-21T14:35:11;23.60;99.90
50544;DHT22;41176;44.032;20.900;2022-08-21T14:37:41;23.50;99.90
50544;DHT22;41176;44.032;20.900;2022-08-21T14:40:08;23.40;99.90
50544;DHT22;41176;44.032;20.900;2022-08-21T14:42:35;23.40;99.90
50544;DHT22;41176;44.032;20.900;2022-08-21T14:45:15;23.40;99.90
50544;DHT22;41176;44.032;20.900;2022-08-21T14:47:41;23.40;99.90
50544;DHT22;41176;44.032;20.900;2022-08-21T14:50:11;23.30;99.90
50544;DHT22;41176;44.032;20.900;2022-08-21T14:52:39;23.30;99.90
50544;DHT22;41176;44.032;20.900;2022-08-21T14:55:06;23.40;99.90
50544;DHT22;41176;44.032;20.900;2022-08-21T14:57:33;23.60;99.90
50544;DHT22;41176;44.032;20.900;2022-08-21T15:00:01;23.70;99.90
50544;DHT22;41176;44.032;20.900;2022-08-21T15:02:27;23.70;99.90
50544;DHT22;41176;44.032;20.900;2022-08-21T15:04:52;23.80;99.90
50544;DHT22;41176;44.032;20.900;2022-08-21T15:07:18;23.80;99.90
50544;DHT22;41176;44.032;20.900;2022-08-21T15:09:45;23.80;99.90
50544;DHT22;41176;44.032;20.900;2022-08-21T15:12:13;23.60;99.90
50544;DHT22;41176;44.032;20.900;2022-08-21T15:14:40;23.60;99.90
50544;DHT22;41176;44.032;20.900;2022-08-21T15:17:08;23.50;99.90
50544;DHT22;41176;44.032;20.900;2022-08-21T15:19:34;23.50;99.90
50544;DHT22;41176;44.032;20.900;2022-08-21T15:22:00;23.50;99.90
50544;DHT22;41176;44.032;20.900;2022-08-21T15:24:27;23.50;99.90
50544;DHT22;41176;44.032;20.900;2022-08-21T15:26:54;23.50;99.90
50544;DHT22;41176;44.032;20.900;2022-08-21T15:29:21;23.40;99.90
50544;DHT22;41176;44.032;20.900;2022-08-21T15:31:59;23.20;99.90
50544;DHT22;41176;44.032;20.900;2022-08-21T15:34:27;23.20;99.90
50544;DHT22;41176;44.032;20.900;2022-08-21T15:36:55;23.10;99.90
50544;DHT22;41176;44.032;20.900;2022-08-21T15:39:21;23.10;99.90
50544;DHT22;41176;44.032;20.900;2022-08-21T15:41:48;23.10;99.90
50544;DHT22;41176;44.032;20.900;2022-08-21T15:44:15;23.10;99.90
50544;DHT22;41176;44.032;20.900;2022-08-21T15:46:41;23.10;99.90
50544;DHT22;41176;44.032;20.900;2022-08-21T15:49:10;23.00;99.90
50544;DHT22;41176;44.032;20.900;2022-08-21T15:51:36;23.00;99.90
50544;DHT22;41176;44.032;20.900;2022-08-21T15:54:03;23.00;99.90
50544;DHT22;41176;44.032;20.900;2022-08-21T15:56:36;23.00;99.90
50544;DHT22;41176;44.032;20.900;2022-08-21T15:59:23;23.10;99.90
50544;DHT22;41176;44.032;20.900;2022-08-21T16:01:51;23.00;99.90
50544;DHT22;41176;44.032;20.900;2022-08-21T16:04:23;23.00;99.90
50544;DHT22;41176;44.032;20.900;2022-08-21T16:06:51;23.00;99.90
50544;DHT22;41176;44.032;20.900;2022-08-21T16:09:17;22.90;99.90
50544;DHT22;41176;44.032;20.900;2022-08-21T16:11:44;22.80;99.90
50544;DHT22;41176;44.032;20.900;2022-08-21T16:14:12;22.70;99.90
50544;DHT22;41176;44.032;20.900;2022-08-21T16:16:40;22.70;99.90
50544;DHT22;41176;44.032;20.900;2022-08-21T16:19:06;22.80;99.90
50544;DHT22;41176;44.032;20.900;2022-08-21T16:21:33;22.80;99.90
50544;DHT22;41176;44.032;20.900;2022-08-21T16:24:00;22.80;99.90
50544;DHT22;41176;44.032;20.900;2022-08-21T16:26:26;22.90;99.90
50544;DHT22;41176;44.032;20.900;2022-08-21T16:28:55;22.80;99.90
50544;DHT22;41176;44.032;20.900;2022-08-21T16:31:23;22.80;99.90